This is the latest recevied weather packets stored in our database for station/object DL3MEB-6. If no packets are shown the sender has not sent any weather packets the latest 1 day(s).
| Time | Temp. | Humidity | Pressure | Rain* | Wind** | Luminosity | Snow |
|---|---|---|---|---|---|---|---|
| 1778003839 | 17.78° C | 58% | 1005.2 hPa | 0 mm | 2.68 m/s, 265° | - | - |
| 1778002930 | 18.89° C | 54% | 1005 hPa | 0 mm | 0.89 m/s, 258° | - | - |
| 1778002023 | 18.33° C | 58% | 1004.9 hPa | 0 mm | 0.89 m/s, 268° | - | - |
| 1778001116 | 18.33° C | 59% | 1005.1 hPa | 0 mm | 0 m/s | - | - |
| 1778000203 | 18.33° C | 59% | 1005.1 hPa | 0 mm | 2.24 m/s, 292° | - | - |
| 1777999303 | 17.78° C | 62% | 1005.2 hPa | 0 mm | 2.24 m/s, 346° | - | - |
| 1777998392 | 17.78° C | 67% | 1005.3 hPa | 0 mm | 2.24 m/s, 302° | - | - |
| 1777997490 | 18.33° C | 69% | 1005.3 hPa | 0 mm | 0 m/s | - | - |
| 1777996578 | 18.33° C | 68% | 1005.5 hPa | 0 mm | 0.89 m/s, 103° | - | - |
| 1777995673 | 18.33° C | 63% | 1005.4 hPa | 0 mm | 0.45 m/s, 232° | - | - |
| 1777994773 | 18.89° C | 60% | 1005.1 hPa | 0 mm | 2.24 m/s, 181° | - | - |
| 1777993863 | 20° C | 56% | 1004.7 hPa | 0 mm | 1.79 m/s, 226° | - | - |
| 1777992954 | 21.67° C | 42% | 1004.1 hPa | 0 mm | 4.02 m/s, 227° | - | - |
| 1777992054 | 22.22° C | 36% | 1003.9 hPa | 0 mm | 4.92 m/s, 203° | - | - |
| 1777991149 | 22.78° C | 39% | 1003.8 hPa | 0 mm | 4.92 m/s, 233° | - | - |
| 1777990238 | 22.78° C | 39% | 1003.8 hPa | 0 mm | 2.68 m/s, 263° | - | - |
| 1777989331 | 23.33° C | 37% | 1003.8 hPa | 0 mm | 0.89 m/s, 246° | - | - |
| 1777988431 | 23.89° C | 32% | 1003.8 hPa | 0 mm | 2.24 m/s, 223° | - | - |
| 1777987531 | 23.89° C | 32% | 1003.9 hPa | 0 mm | 1.34 m/s, 234° | - | - |
| 1777986629 | 23.89° C | 32% | 1004 hPa | 0 mm | 2.24 m/s, 299° | - | - |
| 1777985725 | 24.44° C | 31% | 1003.8 hPa | 0 mm | 2.68 m/s, 258° | - | - |
| 1777984824 | 24.44° C | 30% | 1004 hPa | 0 mm | 2.68 m/s, 243° | - | - |
| 1777983917 | 25° C | 29% | - | 0 mm | 1.79 m/s, 359° | - | - |
| 1777983914 | 25° C | 29% | 1004.1 hPa | 0 mm | 1.79 m/s, 359° | - | - |
| 1777983015 | 25.56° C | 28% | 1003.8 hPa | 0 mm | 0.45 m/s, 65° | - | - |
* Rain latest hour (hover to see other rain measurements)
** Current wind speed in m/s (hover to see current wind gust speed)